createdAt,value
2023-04-11T00:00:15.378Z,1.70
2023-04-11T00:02:43.323Z,1.73
2023-04-11T00:05:11.468Z,1.60
2023-04-11T00:07:40.502Z,1.80
2023-04-11T00:10:08.975Z,1.60
2023-04-11T00:12:36.755Z,1.80
2023-04-11T00:15:05.040Z,1.40
2023-04-11T00:17:32.747Z,1.77
2023-04-11T00:20:07.992Z,1.57
2023-04-11T00:22:35.874Z,1.30
2023-04-11T00:25:05.154Z,1.43
2023-04-11T00:27:32.908Z,1.63
2023-04-11T00:30:00.830Z,1.57
2023-04-11T00:32:28.858Z,1.63
2023-04-11T00:34:56.542Z,1.50
2023-04-11T00:37:24.277Z,1.83
2023-04-11T00:39:52.933Z,1.70
2023-04-11T00:42:21.988Z,1.63
2023-04-11T00:44:50.066Z,1.30
2023-04-11T00:47:17.860Z,1.80
2023-04-11T00:49:46.604Z,1.50
2023-04-11T00:52:14.441Z,1.57
2023-04-11T00:54:42.194Z,1.40
2023-04-11T00:57:09.970Z,1.67
2023-04-11T00:59:39.438Z,1.70
2023-04-11T01:02:08.135Z,1.50
2023-04-11T01:04:35.941Z,1.50
2023-04-11T01:07:09.138Z,1.70
2023-04-11T01:09:37.465Z,1.50
2023-04-11T01:12:06.933Z,1.23
2023-04-11T01:14:34.609Z,1.43
2023-04-11T01:17:03.959Z,1.30
2023-04-11T01:19:32.025Z,1.50
2023-04-11T01:22:01.658Z,1.47
2023-04-11T01:24:30.982Z,1.23
2023-04-11T01:26:58.700Z,1.60
2023-04-11T01:29:26.410Z,1.87
2023-04-11T01:31:55.376Z,1.70
2023-04-11T01:34:28.350Z,1.43
2023-04-11T01:36:56.628Z,1.53
2023-04-11T01:39:24.604Z,1.53
2023-04-11T01:41:55.124Z,1.80
2023-04-11T01:44:24.382Z,1.57
2023-04-11T01:46:52.505Z,1.53
2023-04-11T01:49:21.620Z,1.63
2023-04-11T01:51:49.347Z,1.77
2023-04-11T01:54:16.968Z,1.40
2023-04-11T01:56:44.649Z,1.77
2023-04-11T01:59:14.161Z,1.40
2023-04-11T02:01:44.428Z,1.70
2023-04-11T02:04:12.599Z,2.10
2023-04-11T02:06:40.507Z,1.60
2023-04-11T02:09:08.222Z,1.87
2023-04-11T02:11:36.088Z,1.67
2023-04-11T02:14:03.896Z,1.63
2023-04-11T02:16:33.741Z,1.70
2023-04-11T02:19:03.562Z,1.50
2023-04-11T02:21:31.698Z,1.30
2023-04-11T02:24:00.727Z,2.07
2023-04-11T02:26:28.602Z,1.73
2023-04-11T02:28:56.539Z,1.20
2023-04-11T02:31:24.551Z,0.97
2023-04-11T02:33:53.762Z,0.90
2023-04-11T02:36:21.477Z,0.93
2023-04-11T02:38:49.213Z,1.00
2023-04-11T02:41:16.881Z,0.90
2023-04-11T02:43:44.598Z,0.70
2023-04-11T02:46:13.278Z,0.70
2023-04-11T02:48:41.241Z,0.93
2023-04-11T02:51:10.357Z,0.70
2023-04-11T02:53:38.189Z,1.10
2023-04-11T02:56:06.747Z,0.90
2023-04-11T02:58:39.011Z,0.90
2023-04-11T03:01:07.986Z,0.87
2023-04-11T03:03:35.839Z,0.70
2023-04-11T03:06:03.616Z,0.87
2023-04-11T03:08:32.698Z,1.00
2023-04-11T03:11:00.427Z,1.50
2023-04-11T03:13:28.134Z,1.43
2023-04-11T03:15:55.850Z,1.20
2023-04-11T03:18:23.979Z,0.83
2023-04-11T03:20:52.292Z,1.00
2023-04-11T03:23:19.991Z,0.80
2023-04-11T03:25:51.000Z,1.00
2023-04-11T03:28:18.840Z,0.70
2023-04-11T03:30:46.610Z,0.83
2023-04-11T03:33:14.409Z,0.90
2023-04-11T03:35:42.149Z,0.83
2023-04-11T03:38:09.902Z,1.03
2023-04-11T03:40:37.654Z,1.00
2023-04-11T03:43:07.596Z,0.70
2023-04-11T03:45:35.275Z,0.90
2023-04-11T03:48:02.975Z,0.90
2023-04-11T03:50:30.996Z,0.90
2023-04-11T03:52:58.741Z,1.10
2023-04-11T03:55:27.110Z,0.90
2023-04-11T03:57:55.149Z,0.90
2023-04-11T04:00:24.314Z,0.80
2023-04-11T04:02:52.136Z,0.97
2023-04-11T04:05:20.238Z,1.03
2023-04-11T04:07:47.932Z,1.73
2023-04-11T04:10:15.612Z,0.90
2023-04-11T04:12:43.385Z,1.27
2023-04-11T04:15:14.801Z,0.97
2023-04-11T04:17:44.395Z,0.90
2023-04-11T04:20:12.764Z,1.00
2023-04-11T04:22:40.546Z,1.10
2023-04-11T04:25:12.525Z,0.87
2023-04-11T04:27:44.432Z,1.00
2023-04-11T04:30:15.629Z,1.03
2023-04-11T04:32:45.506Z,0.97
2023-04-11T04:35:16.787Z,0.90
2023-04-11T04:37:46.450Z,1.10
2023-04-11T04:40:15.940Z,1.08
2023-04-11T04:42:43.764Z,1.20
2023-04-11T04:45:12.059Z,0.98
2023-04-11T04:47:40.066Z,0.98
2023-04-11T04:50:10.240Z,0.75
2023-04-11T04:52:37.919Z,0.80
2023-04-11T04:55:07.505Z,0.70
2023-04-11T04:57:35.358Z,0.70
2023-04-11T05:00:06.674Z,0.70
2023-04-11T05:02:34.422Z,0.77
2023-04-11T05:05:04.439Z,0.98
2023-04-11T05:07:33.710Z,0.80
2023-04-11T05:10:06.512Z,0.95
2023-04-11T05:12:34.202Z,0.70
2023-04-11T05:15:01.822Z,1.25
2023-04-11T05:17:31.156Z,0.95
2023-04-11T05:19:59.199Z,0.90
2023-04-11T05:22:27.222Z,0.85
2023-04-11T05:24:56.955Z,0.90
2023-04-11T05:27:24.918Z,0.80
2023-04-11T05:29:54.226Z,1.08
2023-04-11T05:32:22.027Z,1.00
2023-04-11T05:34:56.540Z,0.95
2023-04-11T05:37:26.522Z,1.20
2023-04-11T05:39:56.309Z,1.30
2023-04-11T05:42:25.358Z,0.90
2023-04-11T05:44:53.306Z,0.70
2023-04-11T05:47:21.224Z,0.70
2023-04-11T05:49:48.979Z,1.10
2023-04-11T05:52:16.775Z,1.00
2023-04-11T05:54:44.465Z,0.98
2023-04-11T05:57:12.154Z,1.88
2023-04-11T05:59:41.180Z,0.75
2023-04-11T06:02:09.439Z,0.93
2023-04-11T06:04:37.315Z,0.77
2023-04-11T06:07:05.576Z,0.70
2023-04-11T06:09:34.259Z,0.93
2023-04-11T06:12:02.204Z,0.70
2023-04-11T06:14:30.193Z,0.60
2023-04-11T06:16:59.993Z,1.52
2023-04-11T06:19:27.774Z,1.15
2023-04-11T06:21:55.791Z,0.90
2023-04-11T06:24:36.958Z,1.02
2023-04-11T06:27:05.892Z,1.20
2023-04-11T06:29:33.702Z,0.80
2023-04-11T06:32:02.843Z,1.20
2023-04-11T06:34:30.805Z,0.70
2023-04-11T06:36:58.501Z,0.85
2023-04-11T06:39:26.171Z,0.93
2023-04-11T06:41:53.916Z,0.88
2023-04-11T06:44:21.745Z,0.82
2023-04-11T06:46:49.770Z,0.85
2023-04-11T06:49:19.185Z,1.20
2023-04-11T06:51:50.055Z,0.90
2023-04-11T06:54:18.515Z,1.15
2023-04-11T06:56:46.288Z,1.20
2023-04-11T06:59:14.555Z,0.80
2023-04-11T07:01:42.611Z,0.75
2023-04-11T07:04:10.455Z,1.15
2023-04-11T07:06:40.882Z,1.35
2023-04-11T07:09:09.564Z,1.00
2023-04-11T07:11:38.597Z,1.10
2023-04-11T07:14:06.554Z,1.00
2023-04-11T07:16:34.692Z,0.95
2023-04-11T07:19:03.290Z,0.90
2023-04-11T07:21:32.387Z,1.00
2023-04-11T07:24:01.606Z,1.00
2023-04-11T07:26:32.440Z,1.58
2023-04-11T07:29:00.919Z,1.10
2023-04-11T07:31:28.684Z,1.27
2023-04-11T07:33:56.675Z,1.20
2023-04-11T07:36:24.626Z,1.05
2023-04-11T07:38:53.254Z,1.33
2023-04-11T07:41:22.392Z,1.27
2023-04-11T07:43:50.158Z,1.15
2023-04-11T07:46:17.946Z,1.40
2023-04-11T07:48:45.741Z,1.17
2023-04-11T07:51:13.495Z,1.00
2023-04-11T07:53:41.200Z,1.40
2023-04-11T07:56:09.912Z,1.60
2023-04-11T07:58:39.014Z,1.37
2023-04-11T08:01:09.144Z,1.60
2023-04-11T08:03:37.094Z,1.17
2023-04-11T08:06:05.571Z,1.07
2023-04-11T08:08:33.519Z,1.00
2023-04-11T08:11:01.218Z,1.43
2023-04-11T08:13:29.645Z,1.07
2023-04-11T08:15:58.741Z,1.20
2023-04-11T08:18:26.667Z,1.47
2023-04-11T08:20:54.671Z,1.53
2023-04-11T08:23:22.859Z,1.10
2023-04-11T08:25:50.863Z,1.40
2023-04-11T08:28:18.967Z,1.70
2023-04-11T08:30:47.018Z,1.30
2023-04-11T08:33:16.380Z,1.20
2023-04-11T08:35:44.089Z,1.60
2023-04-11T08:38:12.401Z,1.87
2023-04-11T08:40:40.216Z,1.17
2023-04-11T08:43:12.129Z,1.37
2023-04-11T08:45:40.541Z,1.77
2023-04-11T08:48:09.056Z,1.37
2023-04-11T08:50:39.411Z,1.27
2023-04-11T08:53:08.789Z,1.20
2023-04-11T08:55:37.682Z,1.50
2023-04-11T08:58:05.876Z,1.53
2023-04-11T09:00:33.830Z,1.40
2023-04-11T09:03:03.534Z,1.70
2023-04-11T09:05:33.348Z,1.17
2023-04-11T09:08:04.388Z,1.90
2023-04-11T09:10:32.185Z,1.13
2023-04-11T09:13:00.776Z,1.10
2023-04-11T09:15:30.407Z,1.50
2023-04-11T09:18:00.780Z,1.20
2023-04-11T09:20:31.564Z,1.87
2023-04-11T09:23:00.415Z,1.70
2023-04-11T09:25:30.295Z,1.50
2023-04-11T09:28:09.589Z,1.67
2023-04-11T09:30:37.432Z,1.70
2023-04-11T09:33:21.676Z,1.27
2023-04-11T09:35:51.265Z,1.23
2023-04-11T09:38:32.972Z,2.30
2023-04-11T09:41:03.433Z,1.20
2023-04-11T09:43:49.983Z,1.43
2023-04-11T09:46:20.515Z,1.27
2023-04-11T09:48:48.726Z,1.40
2023-04-11T09:51:28.112Z,1.10
2023-04-11T09:54:04.454Z,1.20
2023-04-11T09:56:35.527Z,1.20
2023-04-11T09:59:03.978Z,1.40
2023-04-11T10:01:31.788Z,1.30
2023-04-11T10:04:01.452Z,1.23
2023-04-11T10:06:33.875Z,1.40
2023-04-11T10:09:11.033Z,1.40
2023-04-11T10:11:42.206Z,1.30
2023-04-11T10:14:10.178Z,1.40
2023-04-11T10:16:38.488Z,1.10
2023-04-11T10:19:25.741Z,1.20
2023-04-11T10:21:53.558Z,1.13
2023-04-11T10:24:22.175Z,1.20
2023-04-11T10:26:53.353Z,1.40
2023-04-11T10:29:52.403Z,1.40
2023-04-11T10:32:22.440Z,1.33
2023-04-11T10:35:23.944Z,1.50
2023-04-11T10:37:51.682Z,1.70
2023-04-11T10:40:20.663Z,1.50
2023-04-11T10:42:49.798Z,1.47
2023-04-11T10:45:19.714Z,1.73
2023-04-11T10:48:03.345Z,1.40
2023-04-11T10:50:42.339Z,1.40
2023-04-11T10:53:14.293Z,1.60
2023-04-11T10:55:47.661Z,1.17
2023-04-11T10:58:19.727Z,1.50
2023-04-11T11:01:25.679Z,1.70
2023-04-11T11:04:02.378Z,1.47
2023-04-11T11:06:31.137Z,1.30
2023-04-11T11:08:59.689Z,1.50
2023-04-11T11:11:27.369Z,1.10
2023-04-11T11:13:57.072Z,1.10
2023-04-11T11:16:26.819Z,1.30
2023-04-11T11:18:56.632Z,1.47
2023-04-11T11:21:28.562Z,1.23
2023-04-11T11:24:01.098Z,1.57
2023-04-11T11:26:39.572Z,1.17
2023-04-11T11:29:09.163Z,1.50
2023-04-11T11:31:39.350Z,1.20
2023-04-11T11:34:22.249Z,2.03
2023-04-11T11:36:52.756Z,1.60
2023-04-11T11:39:21.977Z,1.73
2023-04-11T11:41:51.602Z,1.50
2023-04-11T11:44:24.875Z,1.43
2023-04-11T11:47:02.477Z,1.17
2023-04-11T11:49:44.743Z,1.33
2023-04-11T11:52:12.822Z,1.37
2023-04-11T11:54:47.494Z,1.23
2023-04-11T11:57:22.737Z,1.53
2023-04-11T11:59:56.196Z,1.63
2023-04-11T12:02:26.610Z,1.47
2023-04-11T12:05:00.107Z,1.17
2023-04-11T12:07:32.542Z,1.60
2023-04-11T12:10:01.314Z,1.80
2023-04-11T12:12:36.237Z,1.70
2023-04-11T12:15:12.152Z,1.20
2023-04-11T12:17:41.082Z,1.57
2023-04-11T12:20:10.797Z,1.10
2023-04-11T12:22:38.895Z,1.30
2023-04-11T12:25:07.871Z,1.53
2023-04-11T12:27:36.596Z,1.50
2023-04-11T12:30:06.922Z,1.17
2023-04-11T12:32:34.857Z,1.47
2023-04-11T12:35:03.466Z,1.57
2023-04-11T12:37:31.458Z,1.43
2023-04-11T12:39:59.198Z,1.87
2023-04-11T12:42:27.561Z,1.50
2023-04-11T12:44:55.604Z,1.20
2023-04-11T12:47:24.745Z,1.50
2023-04-11T12:49:52.440Z,1.33
2023-04-11T12:52:20.304Z,1.50
2023-04-11T12:54:47.990Z,1.23
2023-04-11T12:57:15.665Z,1.30
2023-04-11T12:59:43.370Z,1.23
2023-04-11T13:02:11.268Z,1.70
2023-04-11T13:04:40.567Z,1.33
2023-04-11T13:07:10.067Z,1.20
2023-04-11T13:09:37.865Z,1.30
2023-04-11T13:12:05.900Z,1.33
2023-04-11T13:14:33.571Z,1.13
2023-04-11T13:17:01.378Z,1.47
2023-04-11T13:19:29.320Z,1.40
2023-04-11T13:21:58.777Z,1.20
2023-04-11T13:24:27.407Z,1.20
2023-04-11T13:26:55.404Z,1.37
2023-04-11T13:29:23.130Z,1.50
2023-04-11T13:31:50.850Z,1.40
2023-04-11T13:34:18.538Z,1.17
2023-04-11T13:36:46.802Z,1.37
2023-04-11T13:39:16.029Z,1.50
2023-04-11T13:41:43.773Z,1.50
2023-04-11T13:44:11.600Z,1.30
2023-04-11T13:46:39.428Z,1.50
2023-04-11T13:49:07.186Z,1.27
2023-04-11T13:51:34.993Z,1.30
2023-04-11T13:54:02.754Z,1.20
2023-04-11T13:56:31.843Z,1.50
2023-04-11T13:58:59.682Z,1.10
2023-04-11T14:01:27.489Z,1.20
2023-04-11T14:03:55.383Z,1.50
2023-04-11T14:06:23.608Z,1.10
2023-04-11T14:08:52.031Z,1.10
2023-04-11T14:11:19.709Z,1.20
2023-04-11T14:13:48.826Z,1.20
2023-04-11T14:16:16.610Z,1.40
2023-04-11T14:18:44.669Z,1.30
2023-04-11T14:21:12.445Z,1.47
2023-04-11T14:23:40.171Z,1.50
2023-04-11T14:26:08.113Z,1.50
2023-04-11T14:28:36.067Z,1.33
2023-04-11T14:31:05.498Z,1.47
2023-04-11T14:33:33.472Z,1.13
2023-04-11T14:36:01.515Z,1.20
2023-04-11T14:38:29.357Z,1.37
2023-04-11T14:40:57.280Z,1.10
2023-04-11T14:43:24.968Z,1.60
2023-04-11T14:45:56.352Z,1.27
2023-04-11T14:48:27.260Z,1.40
2023-04-11T14:50:55.835Z,1.30
2023-04-11T14:53:24.049Z,1.30
2023-04-11T14:55:51.952Z,1.63
2023-04-11T14:58:20.001Z,1.40
2023-04-11T15:00:47.842Z,1.57
2023-04-11T15:03:15.808Z,1.40
2023-04-11T15:05:45.275Z,1.27
2023-04-11T15:08:13.097Z,1.60
2023-04-11T15:10:41.126Z,1.87
2023-04-11T15:13:09.185Z,1.87
2023-04-11T15:15:37.632Z,1.70
2023-04-11T15:18:23.400Z,2.13
2023-04-11T15:20:53.488Z,1.47
2023-04-11T15:23:22.125Z,1.60
2023-04-11T15:25:54.343Z,1.60
2023-04-11T15:28:22.768Z,1.60
2023-04-11T15:30:52.614Z,2.10
2023-04-11T15:33:22.097Z,1.50
2023-04-11T15:35:50.014Z,1.60
2023-04-11T15:38:19.322Z,1.13
2023-04-11T15:40:50.418Z,1.80
2023-04-11T15:43:18.313Z,2.40
2023-04-11T15:45:46.278Z,1.30
2023-04-11T15:48:14.117Z,1.43
2023-04-11T15:50:44.789Z,1.10
2023-04-11T15:53:13.497Z,1.50
2023-04-11T15:55:47.916Z,1.30
2023-04-11T15:58:15.844Z,1.40
2023-04-11T16:00:44.772Z,1.53
2023-04-11T16:03:12.858Z,1.10
2023-04-11T16:05:43.408Z,1.10
2023-04-11T16:08:11.838Z,2.30
2023-04-11T16:10:39.746Z,1.17
2023-04-11T16:13:08.787Z,1.40
2023-04-11T16:15:36.524Z,1.30
2023-04-11T16:18:04.366Z,1.90
2023-04-11T16:20:33.863Z,2.17
2023-04-11T16:23:01.716Z,1.57
2023-04-11T16:25:29.534Z,1.23
2023-04-11T16:27:57.225Z,1.20
2023-04-11T16:30:27.980Z,1.43
2023-04-11T16:32:56.531Z,1.20
2023-04-11T16:35:24.298Z,1.43
2023-04-11T16:37:52.145Z,1.07
2023-04-11T16:40:20.829Z,1.63
2023-04-11T16:42:48.896Z,1.33
2023-04-11T16:45:16.717Z,1.40
2023-04-11T16:47:45.817Z,1.60
2023-04-11T16:50:13.600Z,1.50
2023-04-11T16:52:41.510Z,2.30
2023-04-11T16:55:10.335Z,1.60
2023-04-11T16:57:38.027Z,1.53
2023-04-11T17:00:10.773Z,1.83
2023-04-11T17:02:38.612Z,2.33
2023-04-11T17:05:09.754Z,1.90
2023-04-11T17:07:37.492Z,1.13
2023-04-11T17:10:05.753Z,1.73
2023-04-11T17:12:33.509Z,1.50
2023-04-11T17:15:01.691Z,1.50
2023-04-11T17:17:29.600Z,1.40
2023-04-11T17:20:32.905Z,1.67
2023-04-11T17:23:00.868Z,1.60
2023-04-11T17:25:30.094Z,1.83
2023-04-11T17:28:00.314Z,1.57
2023-04-11T17:30:28.895Z,1.80
2023-04-11T17:32:56.777Z,1.50
2023-04-11T17:35:25.124Z,1.27
2023-04-11T17:37:55.074Z,1.60
2023-04-11T17:40:22.796Z,1.40
2023-04-11T17:42:51.033Z,1.70
2023-04-11T17:45:19.210Z,1.50
2023-04-11T17:47:47.748Z,1.77
2023-04-11T17:50:16.436Z,1.90
2023-04-11T17:52:45.333Z,1.90
2023-04-11T17:55:15.992Z,2.33
2023-04-11T17:57:44.623Z,1.80
2023-04-11T18:00:19.993Z,1.60
2023-04-11T18:02:49.603Z,2.00
2023-04-11T18:05:23.772Z,1.87
2023-04-11T18:07:54.200Z,1.50
2023-04-11T18:10:23.513Z,1.80
2023-04-11T18:12:52.731Z,2.33
2023-04-11T18:15:21.050Z,2.20
2023-04-11T18:17:49.416Z,1.80
2023-04-11T18:20:17.717Z,2.30
2023-04-11T18:22:47.899Z,1.63
2023-04-11T18:25:15.866Z,2.83
2023-04-11T18:27:44.971Z,2.60
2023-04-11T18:30:14.223Z,1.70
2023-04-11T18:32:47.078Z,3.73
2023-04-11T18:35:16.145Z,4.67
2023-04-11T18:37:44.090Z,3.10
2023-04-11T18:40:13.981Z,2.10
2023-04-11T18:42:42.670Z,1.80
2023-04-11T18:45:13.109Z,1.80
2023-04-11T18:47:42.662Z,2.77
2023-04-11T19:00:52.885Z,2.20
2023-04-11T19:08:30.133Z,1.90
2023-04-11T19:10:57.844Z,2.13
2023-04-11T19:13:25.709Z,2.83
2023-04-11T19:15:55.569Z,2.70
2023-04-11T19:18:23.477Z,3.00
2023-04-11T19:20:54.732Z,2.47
2023-04-11T19:23:22.578Z,3.00
2023-04-11T19:25:50.576Z,2.70
2023-04-11T19:28:33.029Z,3.00
2023-04-11T19:31:02.969Z,2.37
2023-04-11T19:33:30.921Z,2.80
2023-04-11T19:35:59.028Z,2.73
2023-04-11T19:38:27.165Z,2.57
2023-04-11T19:40:55.649Z,2.80
2023-04-11T19:43:23.650Z,3.00
2023-04-11T19:45:52.047Z,2.97
2023-04-11T19:48:21.485Z,2.50
2023-04-11T19:50:49.308Z,2.80
2023-04-11T20:07:04.228Z,2.53
2023-04-11T20:09:32.304Z,2.90
2023-04-11T20:12:00.171Z,3.07
2023-04-11T20:14:28.625Z,2.00
2023-04-11T20:16:56.832Z,2.27
2023-04-11T20:19:27.622Z,2.70
2023-04-11T20:21:57.400Z,2.83
2023-04-11T20:24:26.511Z,3.13
2023-04-11T20:26:55.262Z,2.93
2023-04-11T20:29:24.560Z,2.80
2023-04-11T20:31:52.590Z,2.87
2023-04-11T20:34:20.541Z,3.30
2023-04-11T20:36:48.477Z,3.20
2023-04-11T20:39:16.732Z,3.23
2023-04-11T20:41:46.096Z,3.70
2023-04-11T20:44:17.872Z,3.87
2023-04-11T20:46:46.721Z,3.80
2023-04-11T20:49:15.585Z,3.97
2023-04-11T20:51:43.921Z,3.30
2023-04-11T20:54:11.986Z,3.40
2023-04-11T20:56:42.117Z,3.20
2023-04-11T20:59:12.758Z,2.50
2023-04-11T21:01:40.789Z,3.17
2023-04-11T21:04:09.722Z,2.90
2023-04-11T21:06:37.685Z,3.60
2023-04-11T21:09:05.771Z,3.00
2023-04-11T21:11:33.924Z,2.73
2023-04-11T21:14:01.833Z,2.73
2023-04-11T21:16:31.596Z,2.50
2023-04-11T21:18:59.896Z,2.83
2023-04-11T21:21:28.377Z,3.20
2023-04-11T21:23:56.569Z,3.87
2023-04-11T21:26:24.509Z,2.90
2023-04-11T21:28:52.361Z,2.77
2023-04-11T21:31:20.359Z,2.70
2023-04-11T21:33:49.857Z,3.57
2023-04-11T21:36:18.182Z,2.60
2023-04-11T21:38:46.068Z,2.73
2023-04-11T21:41:13.846Z,2.70
2023-04-11T21:43:41.507Z,3.33
2023-04-11T21:46:11.669Z,2.90
2023-04-11T21:48:40.237Z,3.43
2023-04-11T21:51:10.005Z,2.60
2023-04-11T21:53:38.562Z,3.40
2023-04-11T21:56:08.521Z,2.83
2023-04-11T21:58:36.960Z,2.80
2023-04-11T22:01:05.121Z,3.10
2023-04-11T22:03:33.899Z,2.90
2023-04-11T22:06:02.156Z,2.40
2023-04-11T22:08:31.325Z,2.55
2023-04-11T22:11:00.194Z,2.57
2023-04-11T22:13:28.198Z,2.63
2023-04-11T22:16:05.513Z,2.80
2023-04-11T22:18:38.238Z,2.40
2023-04-11T22:21:09.138Z,2.63
2023-04-11T22:23:38.597Z,2.10
2023-04-11T22:26:07.116Z,3.10
2023-04-11T22:28:35.570Z,2.40
2023-04-11T22:31:04.851Z,2.30
2023-04-11T22:33:33.687Z,2.40
2023-04-11T22:36:01.619Z,2.93
2023-04-11T22:38:32.264Z,2.50
2023-04-11T22:41:01.569Z,2.40
2023-04-11T22:43:30.562Z,2.07
2023-04-11T22:45:58.671Z,2.27
2023-04-11T22:48:29.713Z,2.40
2023-04-11T22:50:59.094Z,2.97
2023-04-11T22:53:31.021Z,2.77
2023-04-11T22:55:58.750Z,2.30
2023-04-11T22:58:27.908Z,2.53
2023-04-11T23:00:55.657Z,2.50
2023-04-11T23:03:23.856Z,2.47
2023-04-11T23:05:51.639Z,2.20
2023-04-11T23:08:19.729Z,2.40
2023-04-11T23:10:47.576Z,1.95
2023-04-11T23:13:15.540Z,2.27
2023-04-11T23:15:47.330Z,2.20
2023-04-11T23:18:15.110Z,1.70
2023-04-11T23:20:43.340Z,1.98
2023-04-11T23:23:11.516Z,1.98
2023-04-11T23:25:40.687Z,2.00
2023-04-11T23:28:09.493Z,1.75
2023-04-11T23:30:37.421Z,2.15
2023-04-11T23:33:08.636Z,2.10
2023-04-11T23:35:52.037Z,2.65
2023-04-11T23:38:19.832Z,2.45
2023-04-11T23:40:47.649Z,2.22
2023-04-11T23:43:15.309Z,2.10
2023-04-11T23:45:43.084Z,1.80
2023-04-11T23:48:17.710Z,1.90
2023-04-11T23:50:45.368Z,2.10
2023-04-11T23:53:13.081Z,2.20
2023-04-11T23:55:41.582Z,1.95
2023-04-11T23:58:09.316Z,2.03
